sensor_id;sensor_type;location;lat;lon;timestamp;P1;durP1;ratioP1;P2;durP2;ratioP2
2396;SDS011;1209;48.410;9.054;2022-09-09T00:00:16;0.53;;;0.53;;
2396;SDS011;1209;48.410;9.054;2022-09-09T00:02:45;1.33;;;0.80;;
2396;SDS011;1209;48.410;9.054;2022-09-09T00:05:23;0.70;;;0.70;;
2396;SDS011;1209;48.410;9.054;2022-09-09T00:07:55;4.10;;;0.90;;
2396;SDS011;1209;48.410;9.054;2022-09-09T00:13:16;1.13;;;0.80;;
2396;SDS011;1209;48.410;9.054;2022-09-09T00:15:59;2.60;;;0.70;;
2396;SDS011;1209;48.410;9.054;2022-09-09T00:21:06;1.17;;;1.07;;
2396;SDS011;1209;48.410;9.054;2022-09-09T00:23:39;0.80;;;0.80;;
2396;SDS011;1209;48.410;9.054;2022-09-09T00:26:12;1.87;;;0.90;;
2396;SDS011;1209;48.410;9.054;2022-09-09T00:28:45;3.10;;;1.00;;
2396;SDS011;1209;48.410;9.054;2022-09-09T00:31:20;0.77;;;0.77;;
2396;SDS011;1209;48.410;9.054;2022-09-09T00:33:52;0.97;;;0.97;;
2396;SDS011;1209;48.410;9.054;2022-09-09T00:36:20;0.97;;;0.80;;
2396;SDS011;1209;48.410;9.054;2022-09-09T00:38:49;3.07;;;1.43;;
2396;SDS011;1209;48.410;9.054;2022-09-09T00:41:20;1.13;;;0.90;;
2396;SDS011;1209;48.410;9.054;2022-09-09T00:43:50;0.80;;;0.80;;
2396;SDS011;1209;48.410;9.054;2022-09-09T00:57:31;1.23;;;0.80;;
2396;SDS011;1209;48.410;9.054;2022-09-09T01:05:36;1.00;;;1.00;;
2396;SDS011;1209;48.410;9.054;2022-09-09T01:08:11;1.13;;;0.77;;
2396;SDS011;1209;48.410;9.054;2022-09-09T01:10:50;2.13;;;1.10;;
2396;SDS011;1209;48.410;9.054;2022-09-09T01:13:25;0.50;;;0.50;;
2396;SDS011;1209;48.410;9.054;2022-09-09T01:15:55;0.60;;;0.60;;
2396;SDS011;1209;48.410;9.054;2022-09-09T01:18:23;1.33;;;0.80;;
2396;SDS011;1209;48.410;9.054;2022-09-09T01:21:16;0.60;;;0.60;;
2396;SDS011;1209;48.410;9.054;2022-09-09T01:26:35;1.00;;;0.80;;
2396;SDS011;1209;48.410;9.054;2022-09-09T01:29:22;1.30;;;0.93;;
2396;SDS011;1209;48.410;9.054;2022-09-09T01:34:18;1.20;;;0.87;;
2396;SDS011;1209;48.410;9.054;2022-09-09T01:39:31;1.73;;;1.03;;
2396;SDS011;1209;48.410;9.054;2022-09-09T01:41:58;1.60;;;1.03;;
2396;SDS011;1209;48.410;9.054;2022-09-09T01:44:24;0.83;;;0.83;;
2396;SDS011;1209;48.410;9.054;2022-09-09T01:46:51;1.50;;;1.20;;
2396;SDS011;1209;48.410;9.054;2022-09-09T01:49:17;1.60;;;1.20;;
2396;SDS011;1209;48.410;9.054;2022-09-09T01:51:42;1.93;;;1.00;;
2396;SDS011;1209;48.410;9.054;2022-09-09T01:54:08;3.03;;;0.80;;
2396;SDS011;1209;48.410;9.054;2022-09-09T02:04:35;0.70;;;0.70;;
2396;SDS011;1209;48.410;9.054;2022-09-09T02:07:03;1.17;;;0.77;;
2396;SDS011;1209;48.410;9.054;2022-09-09T02:09:35;2.23;;;1.30;;
2396;SDS011;1209;48.410;9.054;2022-09-09T02:12:03;1.33;;;0.73;;
2396;SDS011;1209;48.410;9.054;2022-09-09T02:14:35;2.07;;;1.57;;
2396;SDS011;1209;48.410;9.054;2022-09-09T02:17:08;2.77;;;1.13;;
2396;SDS011;1209;48.410;9.054;2022-09-09T02:19:39;1.57;;;1.47;;
2396;SDS011;1209;48.410;9.054;2022-09-09T02:22:11;1.83;;;1.23;;
2396;SDS011;1209;48.410;9.054;2022-09-09T02:24:37;1.27;;;1.20;;
2396;SDS011;1209;48.410;9.054;2022-09-09T02:27:04;1.43;;;1.23;;
2396;SDS011;1209;48.410;9.054;2022-09-09T02:29:39;1.93;;;1.00;;
2396;SDS011;1209;48.410;9.054;2022-09-09T02:32:07;1.40;;;1.30;;
2396;SDS011;1209;48.410;9.054;2022-09-09T02:34:39;1.03;;;1.03;;
2396;SDS011;1209;48.410;9.054;2022-09-09T02:37:08;2.93;;;1.50;;
2396;SDS011;1209;48.410;9.054;2022-09-09T02:39:35;2.10;;;1.13;;
2396;SDS011;1209;48.410;9.054;2022-09-09T02:42:01;1.07;;;1.07;;
2396;SDS011;1209;48.410;9.054;2022-09-09T02:44:28;2.27;;;1.23;;
2396;SDS011;1209;48.410;9.054;2022-09-09T02:52:40;0.73;;;0.73;;
2396;SDS011;1209;48.410;9.054;2022-09-09T02:55:16;5.03;;;1.03;;
2396;SDS011;1209;48.410;9.054;2022-09-09T02:57:48;4.30;;;0.93;;
2396;SDS011;1209;48.410;9.054;2022-09-09T03:00:15;1.10;;;1.10;;
2396;SDS011;1209;48.410;9.054;2022-09-09T03:02:40;3.23;;;1.43;;
2396;SDS011;1209;48.410;9.054;2022-09-09T03:05:07;1.07;;;1.03;;
2396;SDS011;1209;48.410;9.054;2022-09-09T03:07:32;1.20;;;1.20;;
2396;SDS011;1209;48.410;9.054;2022-09-09T03:09:58;1.67;;;1.57;;
2396;SDS011;1209;48.410;9.054;2022-09-09T03:12:24;1.10;;;1.10;;
2396;SDS011;1209;48.410;9.054;2022-09-09T03:14:49;1.73;;;1.40;;
2396;SDS011;1209;48.410;9.054;2022-09-09T03:17:14;2.70;;;1.37;;
2396;SDS011;1209;48.410;9.054;2022-09-09T03:19:40;1.70;;;1.00;;
2396;SDS011;1209;48.410;9.054;2022-09-09T03:22:05;1.00;;;1.00;;
2396;SDS011;1209;48.410;9.054;2022-09-09T03:24:31;1.40;;;1.30;;
2396;SDS011;1209;48.410;9.054;2022-09-09T03:26:56;1.10;;;1.10;;
2396;SDS011;1209;48.410;9.054;2022-09-09T03:29:22;2.83;;;1.20;;
2396;SDS011;1209;48.410;9.054;2022-09-09T03:31:47;0.90;;;0.90;;
2396;SDS011;1209;48.410;9.054;2022-09-09T03:34:12;3.73;;;1.07;;
2396;SDS011;1209;48.410;9.054;2022-09-09T03:36:38;1.43;;;1.13;;
2396;SDS011;1209;48.410;9.054;2022-09-09T03:39:04;1.20;;;1.20;;
2396;SDS011;1209;48.410;9.054;2022-09-09T03:41:29;1.83;;;1.17;;
2396;SDS011;1209;48.410;9.054;2022-09-09T03:43:55;1.20;;;1.00;;
2396;SDS011;1209;48.410;9.054;2022-09-09T03:46:22;1.90;;;1.20;;
2396;SDS011;1209;48.410;9.054;2022-09-09T03:48:49;1.20;;;1.10;;
2396;SDS011;1209;48.410;9.054;2022-09-09T03:51:14;1.43;;;1.03;;
2396;SDS011;1209;48.410;9.054;2022-09-09T03:53:40;1.33;;;1.20;;
2396;SDS011;1209;48.410;9.054;2022-09-09T03:56:06;2.47;;;1.50;;
2396;SDS011;1209;48.410;9.054;2022-09-09T03:58:33;1.63;;;1.40;;
2396;SDS011;1209;48.410;9.054;2022-09-09T04:01:00;1.90;;;1.00;;
2396;SDS011;1209;48.410;9.054;2022-09-09T04:03:27;1.40;;;1.30;;
2396;SDS011;1209;48.410;9.054;2022-09-09T04:05:53;1.17;;;1.00;;
2396;SDS011;1209;48.410;9.054;2022-09-09T04:08:20;1.43;;;1.33;;
2396;SDS011;1209;48.410;9.054;2022-09-09T04:10:47;1.13;;;0.87;;
2396;SDS011;1209;48.410;9.054;2022-09-09T04:13:13;1.10;;;1.10;;
2396;SDS011;1209;48.410;9.054;2022-09-09T04:15:40;1.20;;;1.00;;
2396;SDS011;1209;48.410;9.054;2022-09-09T04:18:05;1.67;;;1.30;;
2396;SDS011;1209;48.410;9.054;2022-09-09T04:20:31;2.00;;;1.17;;
2396;SDS011;1209;48.410;9.054;2022-09-09T04:22:57;5.47;;;1.97;;
2396;SDS011;1209;48.410;9.054;2022-09-09T04:25:22;2.40;;;1.70;;
2396;SDS011;1209;48.410;9.054;2022-09-09T04:27:52;1.67;;;1.57;;
2396;SDS011;1209;48.410;9.054;2022-09-09T04:30:19;3.40;;;1.60;;
2396;SDS011;1209;48.410;9.054;2022-09-09T04:32:45;1.50;;;1.40;;
2396;SDS011;1209;48.410;9.054;2022-09-09T04:35:10;1.10;;;1.00;;
2396;SDS011;1209;48.410;9.054;2022-09-09T04:37:35;2.03;;;1.93;;
2396;SDS011;1209;48.410;9.054;2022-09-09T04:40:00;1.40;;;1.30;;
2396;SDS011;1209;48.410;9.054;2022-09-09T04:42:27;1.27;;;1.17;;
2396;SDS011;1209;48.410;9.054;2022-09-09T04:44:52;1.70;;;1.33;;
2396;SDS011;1209;48.410;9.054;2022-09-09T04:47:17;2.97;;;1.37;;
2396;SDS011;1209;48.410;9.054;2022-09-09T04:49:43;1.30;;;1.20;;
2396;SDS011;1209;48.410;9.054;2022-09-09T04:52:08;2.63;;;1.30;;
2396;SDS011;1209;48.410;9.054;2022-09-09T04:54:33;2.43;;;1.60;;
2396;SDS011;1209;48.410;9.054;2022-09-09T04:56:59;9.43;;;1.40;;
2396;SDS011;1209;48.410;9.054;2022-09-09T04:59:24;1.30;;;1.20;;
2396;SDS011;1209;48.410;9.054;2022-09-09T05:01:50;2.83;;;1.50;;
2396;SDS011;1209;48.410;9.054;2022-09-09T05:04:15;1.23;;;1.20;;
2396;SDS011;1209;48.410;9.054;2022-09-09T05:06:41;0.90;;;0.90;;
2396;SDS011;1209;48.410;9.054;2022-09-09T05:09:07;2.20;;;1.37;;
2396;SDS011;1209;48.410;9.054;2022-09-09T05:11:33;1.53;;;1.43;;
2396;SDS011;1209;48.410;9.054;2022-09-09T05:14:00;1.40;;;1.30;;
2396;SDS011;1209;48.410;9.054;2022-09-09T05:16:26;1.80;;;1.50;;
2396;SDS011;1209;48.410;9.054;2022-09-09T05:18:51;1.10;;;1.10;;
2396;SDS011;1209;48.410;9.054;2022-09-09T05:21:17;1.40;;;1.30;;
2396;SDS011;1209;48.410;9.054;2022-09-09T05:23:44;1.30;;;1.20;;
2396;SDS011;1209;48.410;9.054;2022-09-09T05:26:11;2.23;;;1.20;;
2396;SDS011;1209;48.410;9.054;2022-09-09T05:28:38;1.83;;;1.30;;
2396;SDS011;1209;48.410;9.054;2022-09-09T05:31:05;1.70;;;1.10;;
2396;SDS011;1209;48.410;9.054;2022-09-09T05:33:36;1.30;;;1.20;;
2396;SDS011;1209;48.410;9.054;2022-09-09T05:36:02;1.20;;;1.00;;
2396;SDS011;1209;48.410;9.054;2022-09-09T05:38:30;1.33;;;1.23;;
2396;SDS011;1209;48.410;9.054;2022-09-09T05:40:57;1.07;;;0.90;;
2396;SDS011;1209;48.410;9.054;2022-09-09T05:43:23;1.60;;;1.50;;
2396;SDS011;1209;48.410;9.054;2022-09-09T05:45:58;1.20;;;1.10;;
2396;SDS011;1209;48.410;9.054;2022-09-09T05:48:38;6.27;;;1.40;;
2396;SDS011;1209;48.410;9.054;2022-09-09T05:51:05;1.53;;;1.30;;
2396;SDS011;1209;48.410;9.054;2022-09-09T05:53:32;1.50;;;1.40;;
2396;SDS011;1209;48.410;9.054;2022-09-09T05:56:05;1.03;;;0.97;;
2396;SDS011;1209;48.410;9.054;2022-09-09T05:58:35;1.00;;;1.00;;
2396;SDS011;1209;48.410;9.054;2022-09-09T06:01:05;2.00;;;0.90;;
2396;SDS011;1209;48.410;9.054;2022-09-09T06:03:33;5.23;;;1.30;;
2396;SDS011;1209;48.410;9.054;2022-09-09T06:06:00;1.03;;;0.90;;
2396;SDS011;1209;48.410;9.054;2022-09-09T06:08:26;2.00;;;1.20;;
2396;SDS011;1209;48.410;9.054;2022-09-09T06:10:51;1.10;;;1.00;;
2396;SDS011;1209;48.410;9.054;2022-09-09T06:13:17;3.30;;;1.40;;
2396;SDS011;1209;48.410;9.054;2022-09-09T06:15:49;2.07;;;1.20;;
2396;SDS011;1209;48.410;9.054;2022-09-09T06:18:16;2.77;;;1.10;;
2396;SDS011;1209;48.410;9.054;2022-09-09T06:20:43;1.27;;;1.07;;
2396;SDS011;1209;48.410;9.054;2022-09-09T06:23:08;1.40;;;0.90;;
2396;SDS011;1209;48.410;9.054;2022-09-09T06:25:33;1.20;;;0.97;;
2396;SDS011;1209;48.410;9.054;2022-09-09T06:27:59;4.77;;;1.03;;
2396;SDS011;1209;48.410;9.054;2022-09-09T06:30:24;2.20;;;0.90;;
2396;SDS011;1209;48.410;9.054;2022-09-09T06:32:49;1.43;;;1.33;;
2396;SDS011;1209;48.410;9.054;2022-09-09T06:35:15;1.20;;;1.00;;
2396;SDS011;1209;48.410;9.054;2022-09-09T06:37:44;3.23;;;1.37;;
2396;SDS011;1209;48.410;9.054;2022-09-09T06:40:10;3.07;;;1.10;;
2396;SDS011;1209;48.410;9.054;2022-09-09T06:42:36;1.93;;;1.17;;
2396;SDS011;1209;48.410;9.054;2022-09-09T06:45:01;1.40;;;1.30;;
2396;SDS011;1209;48.410;9.054;2022-09-09T06:47:27;1.00;;;1.00;;
2396;SDS011;1209;48.410;9.054;2022-09-09T06:49:53;1.17;;;1.17;;
2396;SDS011;1209;48.410;9.054;2022-09-09T06:52:18;2.50;;;1.13;;
2396;SDS011;1209;48.410;9.054;2022-09-09T06:54:44;1.60;;;1.50;;
2396;SDS011;1209;48.410;9.054;2022-09-09T06:57:10;1.87;;;1.73;;
2396;SDS011;1209;48.410;9.054;2022-09-09T06:59:35;3.17;;;1.83;;
2396;SDS011;1209;48.410;9.054;2022-09-09T07:02:01;2.20;;;1.70;;
2396;SDS011;1209;48.410;9.054;2022-09-09T07:04:26;1.63;;;1.47;;
2396;SDS011;1209;48.410;9.054;2022-09-09T07:06:51;1.50;;;1.20;;
2396;SDS011;1209;48.410;9.054;2022-09-09T07:09:17;1.43;;;1.33;;
2396;SDS011;1209;48.410;9.054;2022-09-09T07:11:47;3.80;;;1.13;;
2396;SDS011;1209;48.410;9.054;2022-09-09T07:14:14;1.53;;;1.13;;
2396;SDS011;1209;48.410;9.054;2022-09-09T07:16:40;0.87;;;0.87;;
2396;SDS011;1209;48.410;9.054;2022-09-09T07:19:06;1.30;;;1.20;;
2396;SDS011;1209;48.410;9.054;2022-09-09T07:21:32;1.00;;;1.00;;
2396;SDS011;1209;48.410;9.054;2022-09-09T07:23:58;6.70;;;1.30;;
2396;SDS011;1209;48.410;9.054;2022-09-09T07:26:25;1.43;;;1.10;;
2396;SDS011;1209;48.410;9.054;2022-09-09T07:28:52;1.03;;;1.03;;
2396;SDS011;1209;48.410;9.054;2022-09-09T07:31:23;3.33;;;1.20;;
2396;SDS011;1209;48.410;9.054;2022-09-09T07:33:50;2.23;;;1.40;;
2396;SDS011;1209;48.410;9.054;2022-09-09T07:36:16;1.20;;;1.10;;
2396;SDS011;1209;48.410;9.054;2022-09-09T07:38:58;2.63;;;1.07;;
2396;SDS011;1209;48.410;9.054;2022-09-09T07:41:29;2.57;;;1.00;;
2396;SDS011;1209;48.410;9.054;2022-09-09T07:43:59;1.20;;;1.10;;
2396;SDS011;1209;48.410;9.054;2022-09-09T07:46:26;1.20;;;1.07;;
2396;SDS011;1209;48.410;9.054;2022-09-09T07:48:55;1.10;;;1.10;;
2396;SDS011;1209;48.410;9.054;2022-09-09T07:51:25;1.90;;;1.67;;
2396;SDS011;1209;48.410;9.054;2022-09-09T07:53:59;2.43;;;1.23;;
2396;SDS011;1209;48.410;9.054;2022-09-09T07:56:30;1.30;;;1.20;;
2396;SDS011;1209;48.410;9.054;2022-09-09T07:58:56;1.07;;;0.97;;
2396;SDS011;1209;48.410;9.054;2022-09-09T08:01:30;1.47;;;1.10;;
2396;SDS011;1209;48.410;9.054;2022-09-09T08:04:17;1.43;;;0.77;;
2396;SDS011;1209;48.410;9.054;2022-09-09T08:06:45;3.70;;;1.00;;
2396;SDS011;1209;48.410;9.054;2022-09-09T08:09:14;2.30;;;1.00;;
2396;SDS011;1209;48.410;9.054;2022-09-09T08:11:40;1.10;;;1.00;;
2396;SDS011;1209;48.410;9.054;2022-09-09T08:14:07;1.47;;;0.90;;
2396;SDS011;1209;48.410;9.054;2022-09-09T08:16:34;0.90;;;0.90;;
2396;SDS011;1209;48.410;9.054;2022-09-09T08:19:10;2.57;;;1.20;;
2396;SDS011;1209;48.410;9.054;2022-09-09T08:21:36;4.90;;;1.07;;
2396;SDS011;1209;48.410;9.054;2022-09-09T08:24:04;0.93;;;0.90;;
2396;SDS011;1209;48.410;9.054;2022-09-09T08:26:36;1.20;;;1.10;;
2396;SDS011;1209;48.410;9.054;2022-09-09T08:29:03;2.13;;;1.10;;
2396;SDS011;1209;48.410;9.054;2022-09-09T08:31:31;2.00;;;0.97;;
2396;SDS011;1209;48.410;9.054;2022-09-09T08:34:02;1.10;;;1.00;;
2396;SDS011;1209;48.410;9.054;2022-09-09T08:36:29;3.70;;;1.10;;
2396;SDS011;1209;48.410;9.054;2022-09-09T08:38:58;1.10;;;1.00;;
2396;SDS011;1209;48.410;9.054;2022-09-09T08:41:36;1.87;;;1.00;;
2396;SDS011;1209;48.410;9.054;2022-09-09T08:46:46;0.87;;;0.80;;
2396;SDS011;1209;48.410;9.054;2022-09-09T08:51:51;1.47;;;1.10;;
2396;SDS011;1209;48.410;9.054;2022-09-09T08:54:20;2.17;;;0.87;;
2396;SDS011;1209;48.410;9.054;2022-09-09T08:56:45;0.80;;;0.80;;
2396;SDS011;1209;48.410;9.054;2022-09-09T08:59:11;2.57;;;1.13;;
2396;SDS011;1209;48.410;9.054;2022-09-09T09:01:45;7.70;;;0.80;;
2396;SDS011;1209;48.410;9.054;2022-09-09T09:06:55;1.07;;;0.73;;
2396;SDS011;1209;48.410;9.054;2022-09-09T09:12:01;1.00;;;1.00;;
2396;SDS011;1209;48.410;9.054;2022-09-09T09:14:33;1.50;;;0.80;;
2396;SDS011;1209;48.410;9.054;2022-09-09T09:17:01;2.43;;;0.80;;
2396;SDS011;1209;48.410;9.054;2022-09-09T09:19:28;0.80;;;0.80;;
2396;SDS011;1209;48.410;9.054;2022-09-09T09:27:30;3.20;;;1.10;;
2396;SDS011;1209;48.410;9.054;2022-09-09T09:30:02;7.83;;;1.33;;
2396;SDS011;1209;48.410;9.054;2022-09-09T09:32:38;2.43;;;0.83;;
2396;SDS011;1209;48.410;9.054;2022-09-09T09:35:12;2.83;;;1.37;;
2396;SDS011;1209;48.410;9.054;2022-09-09T09:37:39;1.70;;;1.07;;
2396;SDS011;1209;48.410;9.054;2022-09-09T09:40:12;1.33;;;0.90;;
2396;SDS011;1209;48.410;9.054;2022-09-09T09:42:55;2.23;;;0.97;;
2396;SDS011;1209;48.410;9.054;2022-09-09T09:48:03;2.53;;;1.57;;
2396;SDS011;1209;48.410;9.054;2022-09-09T09:50:31;1.53;;;0.80;;
2396;SDS011;1209;48.410;9.054;2022-09-09T09:52:59;1.60;;;0.80;;
2396;SDS011;1209;48.410;9.054;2022-09-09T09:55:26;0.63;;;0.63;;
2396;SDS011;1209;48.410;9.054;2022-09-09T09:57:59;0.70;;;0.70;;
2396;SDS011;1209;48.410;9.054;2022-09-09T10:00:29;2.73;;;0.90;;
2396;SDS011;1209;48.410;9.054;2022-09-09T10:02:55;8.00;;;0.93;;
2396;SDS011;1209;48.410;9.054;2022-09-09T10:08:04;0.63;;;0.63;;
2396;SDS011;1209;48.410;9.054;2022-09-09T10:11:18;2.27;;;0.80;;
2396;SDS011;1209;48.410;9.054;2022-09-09T10:13:36;1.47;;;0.70;;
2396;SDS011;1209;48.410;9.054;2022-09-09T10:26:55;1.47;;;0.80;;
2396;SDS011;1209;48.410;9.054;2022-09-09T10:29:30;2.30;;;0.67;;
2396;SDS011;1209;48.410;9.054;2022-09-09T10:32:17;3.93;;;0.87;;
2396;SDS011;1209;48.410;9.054;2022-09-09T10:34:53;0.83;;;0.70;;
2396;SDS011;1209;48.410;9.054;2022-09-09T10:40:22;2.20;;;0.90;;
2396;SDS011;1209;48.410;9.054;2022-09-09T10:43:00;0.80;;;0.80;;
2396;SDS011;1209;48.410;9.054;2022-09-09T10:57:45;2.10;;;0.77;;
2396;SDS011;1209;48.410;9.054;2022-09-09T10:59:57;1.53;;;1.17;;
2396;SDS011;1209;48.410;9.054;2022-09-09T11:02:29;0.80;;;0.70;;
2396;SDS011;1209;48.410;9.054;2022-09-09T11:07:41;0.73;;;0.73;;
2396;SDS011;1209;48.410;9.054;2022-09-09T11:13:03;1.70;;;0.90;;
2396;SDS011;1209;48.410;9.054;2022-09-09T11:15:37;2.40;;;1.10;;
2396;SDS011;1209;48.410;9.054;2022-09-09T11:18:08;1.07;;;0.70;;
2396;SDS011;1209;48.410;9.054;2022-09-09T11:20:40;1.23;;;0.70;;
2396;SDS011;1209;48.410;9.054;2022-09-09T11:23:11;0.70;;;0.70;;
2396;SDS011;1209;48.410;9.054;2022-09-09T11:25:40;0.60;;;0.50;;
2396;SDS011;1209;48.410;9.054;2022-09-09T11:41:47;1.17;;;0.70;;
2396;SDS011;1209;48.410;9.054;2022-09-09T11:44:15;2.80;;;0.80;;
2396;SDS011;1209;48.410;9.054;2022-09-09T11:46:52;0.60;;;0.60;;
2396;SDS011;1209;48.410;9.054;2022-09-09T11:49:28;0.50;;;0.50;;
2396;SDS011;1209;48.410;9.054;2022-09-09T11:58:03;5.20;;;0.60;;
2396;SDS011;1209;48.410;9.054;2022-09-09T12:00:52;1.33;;;0.70;;
2396;SDS011;1209;48.410;9.054;2022-09-09T12:06:27;0.77;;;0.50;;
2396;SDS011;1209;48.410;9.054;2022-09-09T12:08:58;0.53;;;0.53;;
2396;SDS011;1209;48.410;9.054;2022-09-09T12:11:35;2.93;;;0.83;;
2396;SDS011;1209;48.410;9.054;2022-09-09T12:14:02;2.00;;;0.70;;
2396;SDS011;1209;48.410;9.054;2022-09-09T12:16:32;0.60;;;0.60;;
2396;SDS011;1209;48.410;9.054;2022-09-09T12:19:32;0.80;;;0.70;;
2396;SDS011;1209;48.410;9.054;2022-09-09T12:24:33;2.33;;;0.90;;
2396;SDS011;1209;48.410;9.054;2022-09-09T12:27:24;1.10;;;0.87;;
2396;SDS011;1209;48.410;9.054;2022-09-09T12:30:01;1.33;;;0.80;;
2396;SDS011;1209;48.410;9.054;2022-09-09T12:32:35;2.20;;;0.83;;
2396;SDS011;1209;48.410;9.054;2022-09-09T12:35:03;1.40;;;0.90;;
2396;SDS011;1209;48.410;9.054;2022-09-09T12:40:36;1.17;;;1.00;;
2396;SDS011;1209;48.410;9.054;2022-09-09T12:43:02;1.03;;;0.93;;
2396;SDS011;1209;48.410;9.054;2022-09-09T12:45:42;2.90;;;0.87;;
2396;SDS011;1209;48.410;9.054;2022-09-09T12:48:08;2.10;;;0.60;;
2396;SDS011;1209;48.410;9.054;2022-09-09T12:50:45;4.27;;;0.70;;
2396;SDS011;1209;48.410;9.054;2022-09-09T12:55:49;3.40;;;0.63;;
2396;SDS011;1209;48.410;9.054;2022-09-09T12:58:17;4.13;;;0.70;;
2396;SDS011;1209;48.410;9.054;2022-09-09T13:00:48;1.37;;;0.70;;
2396;SDS011;1209;48.410;9.054;2022-09-09T13:03:18;1.60;;;0.83;;
2396;SDS011;1209;48.410;9.054;2022-09-09T13:05:46;1.43;;;0.60;;
2396;SDS011;1209;48.410;9.054;2022-09-09T13:08:12;0.90;;;0.73;;
2396;SDS011;1209;48.410;9.054;2022-09-09T13:13:29;5.47;;;0.90;;
2396;SDS011;1209;48.410;9.054;2022-09-09T13:16:15;0.77;;;0.77;;
2396;SDS011;1209;48.410;9.054;2022-09-09T13:18:45;4.33;;;0.77;;
2396;SDS011;1209;48.410;9.054;2022-09-09T13:21:11;0.53;;;0.43;;
2396;SDS011;1209;48.410;9.054;2022-09-09T13:23:36;2.47;;;0.87;;
2396;SDS011;1209;48.410;9.054;2022-09-09T13:26:06;1.37;;;0.70;;
2396;SDS011;1209;48.410;9.054;2022-09-09T13:28:48;1.03;;;0.47;;
2396;SDS011;1209;48.410;9.054;2022-09-09T13:31:21;0.83;;;0.50;;
2396;SDS011;1209;48.410;9.054;2022-09-09T13:33:47;1.87;;;0.90;;
2396;SDS011;1209;48.410;9.054;2022-09-09T13:36:12;1.47;;;0.60;;
2396;SDS011;1209;48.410;9.054;2022-09-09T13:41:19;3.23;;;0.73;;
2396;SDS011;1209;48.410;9.054;2022-09-09T13:43:46;0.57;;;0.57;;
2396;SDS011;1209;48.410;9.054;2022-09-09T13:54:08;0.63;;;0.53;;
2396;SDS011;1209;48.410;9.054;2022-09-09T13:56:35;1.00;;;0.50;;
2396;SDS011;1209;48.410;9.054;2022-09-09T13:59:03;1.17;;;0.87;;
2396;SDS011;1209;48.410;9.054;2022-09-09T14:01:30;0.40;;;0.40;;
2396;SDS011;1209;48.410;9.054;2022-09-09T14:03:56;1.27;;;0.60;;
2396;SDS011;1209;48.410;9.054;2022-09-09T14:06:22;0.73;;;0.50;;
2396;SDS011;1209;48.410;9.054;2022-09-09T14:08:48;3.03;;;0.53;;
2396;SDS011;1209;48.410;9.054;2022-09-09T14:11:15;0.60;;;0.50;;
2396;SDS011;1209;48.410;9.054;2022-09-09T14:13:41;1.17;;;0.73;;
2396;SDS011;1209;48.410;9.054;2022-09-09T14:16:06;5.50;;;0.73;;
2396;SDS011;1209;48.410;9.054;2022-09-09T14:18:32;5.23;;;1.00;;
2396;SDS011;1209;48.410;9.054;2022-09-09T14:20:57;2.10;;;1.03;;
2396;SDS011;1209;48.410;9.054;2022-09-09T14:23:23;1.57;;;0.60;;
2396;SDS011;1209;48.410;9.054;2022-09-09T14:25:49;0.60;;;0.60;;
2396;SDS011;1209;48.410;9.054;2022-09-09T14:28:15;1.20;;;0.50;;
2396;SDS011;1209;48.410;9.054;2022-09-09T14:30:42;0.50;;;0.50;;
2396;SDS011;1209;48.410;9.054;2022-09-09T14:33:09;0.60;;;0.60;;
2396;SDS011;1209;48.410;9.054;2022-09-09T14:35:36;0.60;;;0.43;;
2396;SDS011;1209;48.410;9.054;2022-09-09T14:38:03;0.50;;;0.50;;
2396;SDS011;1209;48.410;9.054;2022-09-09T14:40:29;0.40;;;0.40;;
2396;SDS011;1209;48.410;9.054;2022-09-09T14:42:55;0.50;;;0.50;;
2396;SDS011;1209;48.410;9.054;2022-09-09T14:45:21;1.13;;;0.50;;
2396;SDS011;1209;48.410;9.054;2022-09-09T14:47:49;2.47;;;0.67;;
2396;SDS011;1209;48.410;9.054;2022-09-09T14:50:15;0.50;;;0.50;;
2396;SDS011;1209;48.410;9.054;2022-09-09T14:52:41;0.50;;;0.50;;
2396;SDS011;1209;48.410;9.054;2022-09-09T14:55:06;0.73;;;0.33;;
2396;SDS011;1209;48.410;9.054;2022-09-09T14:57:32;1.57;;;0.83;;
2396;SDS011;1209;48.410;9.054;2022-09-09T14:59:57;0.97;;;0.67;;
2396;SDS011;1209;48.410;9.054;2022-09-09T15:02:23;0.70;;;0.70;;
2396;SDS011;1209;48.410;9.054;2022-09-09T15:04:48;0.73;;;0.63;;
2396;SDS011;1209;48.410;9.054;2022-09-09T15:07:15;1.13;;;0.73;;
2396;SDS011;1209;48.410;9.054;2022-09-09T15:09:41;0.60;;;0.50;;
2396;SDS011;1209;48.410;9.054;2022-09-09T15:12:08;3.80;;;0.50;;
2396;SDS011;1209;48.410;9.054;2022-09-09T15:14:33;2.23;;;1.37;;
2396;SDS011;1209;48.410;9.054;2022-09-09T15:17:00;1.07;;;0.70;;
2396;SDS011;1209;48.410;9.054;2022-09-09T15:19:26;1.23;;;0.70;;
2396;SDS011;1209;48.410;9.054;2022-09-09T15:21:51;2.50;;;0.80;;
2396;SDS011;1209;48.410;9.054;2022-09-09T15:24:16;0.87;;;0.50;;
2396;SDS011;1209;48.410;9.054;2022-09-09T15:26:41;2.47;;;0.70;;
2396;SDS011;1209;48.410;9.054;2022-09-09T15:29:07;7.20;;;0.97;;
2396;SDS011;1209;48.410;9.054;2022-09-09T15:31:33;2.00;;;0.50;;
2396;SDS011;1209;48.410;9.054;2022-09-09T15:34:00;0.40;;;0.40;;
2396;SDS011;1209;48.410;9.054;2022-09-09T15:36:36;0.40;;;0.40;;
2396;SDS011;1209;48.410;9.054;2022-09-09T15:39:03;4.30;;;0.50;;
2396;SDS011;1209;48.410;9.054;2022-09-09T15:41:31;0.43;;;0.43;;
2396;SDS011;1209;48.410;9.054;2022-09-09T15:43:57;0.43;;;0.43;;
2396;SDS011;1209;48.410;9.054;2022-09-09T15:46:24;1.80;;;0.50;;
2396;SDS011;1209;48.410;9.054;2022-09-09T15:48:51;0.37;;;0.37;;
2396;SDS011;1209;48.410;9.054;2022-09-09T15:51:16;0.40;;;0.40;;
2396;SDS011;1209;48.410;9.054;2022-09-09T15:53:43;0.40;;;0.40;;
2396;SDS011;1209;48.410;9.054;2022-09-09T15:56:09;0.50;;;0.50;;
2396;SDS011;1209;48.410;9.054;2022-09-09T15:58:35;0.50;;;0.50;;
2396;SDS011;1209;48.410;9.054;2022-09-09T16:01:02;1.13;;;0.60;;
2396;SDS011;1209;48.410;9.054;2022-09-09T16:03:29;0.40;;;0.40;;
2396;SDS011;1209;48.410;9.054;2022-09-09T16:05:55;0.50;;;0.50;;
2396;SDS011;1209;48.410;9.054;2022-09-09T16:08:20;0.67;;;0.47;;
2396;SDS011;1209;48.410;9.054;2022-09-09T16:10:45;1.13;;;0.60;;
2396;SDS011;1209;48.410;9.054;2022-09-09T16:13:11;1.60;;;0.50;;
2396;SDS011;1209;48.410;9.054;2022-09-09T16:15:39;0.40;;;0.40;;
2396;SDS011;1209;48.410;9.054;2022-09-09T16:18:04;1.00;;;0.70;;
2396;SDS011;1209;48.410;9.054;2022-09-09T16:20:29;0.40;;;0.40;;
2396;SDS011;1209;48.410;9.054;2022-09-09T16:22:55;0.57;;;0.50;;
2396;SDS011;1209;48.410;9.054;2022-09-09T16:25:22;0.60;;;0.60;;
2396;SDS011;1209;48.410;9.054;2022-09-09T16:27:47;1.17;;;0.43;;
2396;SDS011;1209;48.410;9.054;2022-09-09T16:30:12;0.60;;;0.60;;
2396;SDS011;1209;48.410;9.054;2022-09-09T16:32:38;0.97;;;0.50;;
2396;SDS011;1209;48.410;9.054;2022-09-09T16:35:03;0.40;;;0.40;;
2396;SDS011;1209;48.410;9.054;2022-09-09T16:37:29;0.50;;;0.50;;
2396;SDS011;1209;48.410;9.054;2022-09-09T16:39:54;0.50;;;0.50;;
2396;SDS011;1209;48.410;9.054;2022-09-09T16:42:20;1.80;;;0.67;;
2396;SDS011;1209;48.410;9.054;2022-09-09T16:44:45;0.53;;;0.53;;
2396;SDS011;1209;48.410;9.054;2022-09-09T16:47:10;0.90;;;0.70;;
2396;SDS011;1209;48.410;9.054;2022-09-09T16:49:35;0.50;;;0.50;;
2396;SDS011;1209;48.410;9.054;2022-09-09T16:52:01;0.40;;;0.40;;
2396;SDS011;1209;48.410;9.054;2022-09-09T16:54:26;1.53;;;0.40;;
2396;SDS011;1209;48.410;9.054;2022-09-09T16:56:52;0.73;;;0.73;;
2396;SDS011;1209;48.410;9.054;2022-09-09T16:59:18;0.70;;;0.60;;
2396;SDS011;1209;48.410;9.054;2022-09-09T17:01:46;1.00;;;1.00;;
2396;SDS011;1209;48.410;9.054;2022-09-09T17:04:14;2.20;;;0.50;;
2396;SDS011;1209;48.410;9.054;2022-09-09T17:06:51;0.60;;;0.50;;
2396;SDS011;1209;48.410;9.054;2022-09-09T17:09:18;0.87;;;0.53;;
2396;SDS011;1209;48.410;9.054;2022-09-09T17:11:45;0.57;;;0.57;;
2396;SDS011;1209;48.410;9.054;2022-09-09T17:14:13;1.60;;;0.60;;
2396;SDS011;1209;48.410;9.054;2022-09-09T17:16:40;0.70;;;0.70;;
2396;SDS011;1209;48.410;9.054;2022-09-09T17:19:06;0.70;;;0.60;;
2396;SDS011;1209;48.410;9.054;2022-09-09T17:21:33;0.93;;;0.53;;
2396;SDS011;1209;48.410;9.054;2022-09-09T17:23:59;0.70;;;0.63;;
2396;SDS011;1209;48.410;9.054;2022-09-09T17:26:26;2.27;;;0.70;;
2396;SDS011;1209;48.410;9.054;2022-09-09T17:28:53;1.43;;;0.73;;
2396;SDS011;1209;48.410;9.054;2022-09-09T17:31:20;0.90;;;0.40;;
2396;SDS011;1209;48.410;9.054;2022-09-09T17:33:46;0.60;;;0.60;;
2396;SDS011;1209;48.410;9.054;2022-09-09T17:36:14;0.67;;;0.67;;
2396;SDS011;1209;48.410;9.054;2022-09-09T17:38:44;0.77;;;0.50;;
2396;SDS011;1209;48.410;9.054;2022-09-09T17:41:11;0.50;;;0.50;;
2396;SDS011;1209;48.410;9.054;2022-09-09T17:43:39;0.60;;;0.60;;